Sewickley, Pennsylvania
Current Conditions -  °F | °C
As of 4:51 AM on Friday 28 Nov 2014 (Local Time) from KPIT Reporting Station
Light Snow Light Snow  
Wind Chill: 17°   Ceiling: 1500
Heat Index: 26°   Visibility: 8mi
Dew Point: 24°   Wind: 9mph
Humidity: 92%   Direction: 300°WNW
Pressure: 30.26"   Gusts: NA
Location:  40.54°N, 80.18°W
Report Text: KPIT 280951Z 30008KT 8SM -SN FEW007 BKN015 OVC055 M03/M04 A3026 RMK AO2 SLP268 P0001 T10331044
Loading
Personal Weather Stations






























Interactive Weather Map New forecast layout! Learn more

10-Day Weather Forecast

Advertisements
Track Severe Weather on mobile